KALX/ALX METAR and TAF weather

Enter ICAO airport designator
Station Type Date Time Source
KALX METAR 2019/12/11 17:35 UTC NOAA

KALX 111735Z AUTO 35003KT 10SM CLR 08/M05 A3046 RMK AO2 T00801046


Station Type Date Time Source
KALX Decoded METAR 2019/12/11 17:35 UTC NOAA

Alexander City, Thomas C Russell Field Airport, AL, United States (KALX) 32-54-53N 085-57-46W
Dec 11, 2019 - 12:35 PM EST / 2019.12.11 1735 UTC
Wind: from the N (350 degrees) at 3 MPH (3 KT):0
Visibility: 10 mile(s):0
Sky conditions: clear
Temperature: 46.4 F (8.0 C)
Dew Point: 23.7 F (-4.6 C)
Relative Humidity: 40%
Pressure (altimeter): 30.46 in. Hg (1031 hPa)
ob: KALX 111735Z AUTO 35003KT 10SM CLR 08/M05 A3046 RMK AO2 T00801046
cycle: 17

Station Type Date Time Source
KALX TAF UTC NOAA

Error!

Example: see airport list